Big Bear Station Historical Data
Daily Summary for January 6, 2017 Units:  English    Metric   Both
« Previous Day
Next Day »
Daily Weekly Monthly Yearly Custom
  High: Low: Average:
Temperature: 46.2 °F 23.7 °F 31.8 °F
Dew Point: 32.3 °F -3.7 °F 21.2 °F
Humidity: 95 % 14 % 69 %
Wind Speed: 5.8 mph 0.0 mph 1.6 mph
Wind Gust: -999.0 mph - -
Wind:- - SW
Pressure: 23.52 in 23.34 in -
Precipitation: 0.00 in    
Historical Graphs
 
 
Tabular Data for January 6, 2017
Time Temperature Dew Point Pressure Wind Wind Speed Wind Gust Humidity Rainfall Rate (Hourly)
00:06 33.6 °F 32.1 °F 23.35 in NE 3.7 mph -999.0 mph 94 % 0 in
00:22 33.6 °F 30.7 °F 23.34 in East 1.1 mph -999.0 mph 89 % 0 in
00:37 32.9 °F 30.3 °F 23.35 in WNW 3.7 mph -999.0 mph 90 % 0 in
00:52 32.4 °F 29.8 °F 23.35 in SSE 3.2 mph -999.0 mph 90 % 0 in
01:08 32.0 °F 29.9 °F 23.35 in SE 2.7 mph -999.0 mph 92 % 0 in
01:23 31.3 °F 29.8 °F 23.35 in WNW 3.2 mph -999.0 mph 94 % 0 in
01:38 31.1 °F 29.8 °F 23.35 in Calm   -999.0 mph 95 % 0 in
01:53 30.6 °F 29.3 °F 23.36 in West 1.7 mph -999.0 mph 95 % 0 in
02:09 30.4 °F 28.6 °F 23.36 in SW 1.1 mph -999.0 mph 93 % 0 in
02:24 30.2 °F 26.2 °F 23.35 in NW 3.2 mph -999.0 mph 85 % 0 in
02:39 31.5 °F 21.8 °F 23.36 in NW 5.3 mph -999.0 mph 67 % 0 in
02:54 32.0 °F 21.9 °F 23.37 in WNW 5.3 mph -999.0 mph 66 % 0 in
03:10 32.2 °F 22.8 °F 23.36 in NNW 4.2 mph -999.0 mph 68 % 0 in
03:25 32.2 °F 21.4 °F 23.36 in North 5.3 mph -999.0 mph 64 % 0 in
03:40 32.2 °F 21.0 °F 23.37 in NNW 5.8 mph -999.0 mph 63 % 0 in
03:55 31.5 °F 21.8 °F 23.36 in WNW 1.1 mph -999.0 mph 67 % 0 in
04:10 29.1 °F 23.1 °F 23.36 in SSE 2.2 mph -999.0 mph 78 % 0 in
04:26 28.2 °F 21.6 °F 23.37 in SSE 1.1 mph -999.0 mph 76 % 0 in
04:41 27.1 °F 22.3 °F 23.37 in South 1.1 mph -999.0 mph 82 % 0 in
04:56 26.6 °F 20.7 °F 23.37 in South 1.7 mph -999.0 mph 78 % 0 in
05:11 26.2 °F 20.9 °F 23.37 in Calm   -999.0 mph 80 % 0 in
05:26 25.9 °F 21.2 °F 23.38 in Calm   -999.0 mph 82 % 0 in
05:42 25.5 °F 21.3 °F 23.39 in South 3.2 mph -999.0 mph 84 % 0 in
05:57 25.0 °F 20.6 °F 23.39 in NE 1.1 mph -999.0 mph 83 % 0 in
06:12 25.2 °F 20.8 °F 23.39 in South 2.7 mph -999.0 mph 83 % 0 in
06:27 25.0 °F 20.0 °F 23.39 in South 2.2 mph -999.0 mph 81 % 0 in
06:42 25.0 °F 19.7 °F 23.40 in SSE 1.1 mph -999.0 mph 80 % 0 in
06:58 24.3 °F 19.9 °F 23.40 in SSW 1.1 mph -999.0 mph 83 % 0 in
07:13 23.9 °F 19.5 °F 23.40 in Calm   -999.0 mph 83 % 0 in
07:28 23.7 °F 19.3 °F 23.41 in SSE 1.1 mph -999.0 mph 83 % 0 in
07:43 23.7 °F 19.0 °F 23.41 in Calm   -999.0 mph 82 % 0 in
07:59 24.1 °F 19.7 °F 23.41 in Calm   -999.0 mph 83 % 0 in
08:14 24.4 °F 20.3 °F 23.42 in Calm   -999.0 mph 84 % 0 in
08:29 25.2 °F 20.5 °F 23.42 in Calm   -999.0 mph 82 % 0 in
08:44 25.9 °F 20.3 °F 23.42 in Calm   -999.0 mph 79 % 0 in
08:59 26.6 °F 20.7 °F 23.43 in Calm   -999.0 mph 78 % 0 in
09:15 28.0 °F 22.3 °F 23.44 in Calm   -999.0 mph 79 % 0 in
09:30 28.9 °F 23.8 °F 23.45 in Calm   -999.0 mph 81 % 0 in
09:45 30.4 °F 24.1 °F 23.45 in Calm   -999.0 mph 77 % 0 in
10:00 32.0 °F 23.7 °F 23.45 in Calm   -999.0 mph 71 % 0 in
10:15 35.1 °F 17.8 °F 23.45 in Calm   -999.0 mph 49 % 0 in
10:31 36.3 °F 9.2 °F 23.45 in ESE 2.2 mph -999.0 mph 32 % 0 in
10:46 42.1 °F -3.7 °F 23.44 in SE 1.1 mph -999.0 mph 14 % 0 in
11:02 42.6 °F 4.3 °F 23.44 in NW 3.2 mph -999.0 mph 20 % 0 in
11:17 42.4 °F 4.1 °F 23.44 in NNW 1.7 mph -999.0 mph 20 % 0 in
11:32 43.0 °F 9.5 °F 23.43 in NW 2.2 mph -999.0 mph 25 % 0 in
11:48 44.2 °F 2.1 °F 23.43 in NW 5.3 mph -999.0 mph 17 % 0 in
12:03 44.4 °F 8.9 °F 23.42 in SW 3.7 mph -999.0 mph 23 % 0 in
12:19 45.0 °F 8.4 °F 23.42 in WNW 1.7 mph -999.0 mph 22 % 0 in
12:34 46.2 °F 5.0 °F 23.41 in West 2.7 mph -999.0 mph 18 % 0 in
12:49 43.9 °F 21.7 °F 23.41 in NW 2.2 mph -999.0 mph 41 % 0 in
13:04 45.3 °F 21.2 °F 23.41 in SSW 1.7 mph -999.0 mph 38 % 0 in
13:19 42.1 °F 32.3 °F 23.42 in WNW 3.2 mph -999.0 mph 68 % 0 in
13:35 40.3 °F 32.3 °F 23.42 in North 4.2 mph -999.0 mph 73 % 0 in
13:50 40.3 °F 26.3 °F 23.42 in NNW 2.7 mph -999.0 mph 57 % 0 in
14:05 40.8 °F 28.8 °F 23.42 in WNW 2.7 mph -999.0 mph 62 % 0 in
14:20 40.3 °F 29.8 °F 23.42 in NE 2.2 mph -999.0 mph 66 % 0 in
14:36 39.7 °F 27.7 °F 23.42 in NW 2.7 mph -999.0 mph 62 % 0 in
14:51 39.6 °F 30.6 °F 23.43 in West 3.2 mph -999.0 mph 70 % 0 in
15:06 39.4 °F 27.5 °F 23.43 in North 3.7 mph -999.0 mph 62 % 0 in
15:21 39.2 °F 26.1 °F 23.43 in West 1.7 mph -999.0 mph 59 % 0 in
15:36 39.2 °F 23.0 °F 23.43 in WNW 1.1 mph -999.0 mph 52 % 0 in
15:52 38.8 °F 26.9 °F 23.44 in WNW 1.1 mph -999.0 mph 62 % 0 in
16:07 38.7 °F 26.0 °F 23.44 in SSE 1.1 mph -999.0 mph 60 % 0 in
16:23 37.9 °F 26.4 °F 23.44 in West 2.2 mph -999.0 mph 63 % 0 in
16:38 36.9 °F 29.1 °F 23.45 in SSW 1.7 mph -999.0 mph 73 % 0 in
16:53 36.0 °F 28.8 °F 23.44 in South 2.2 mph -999.0 mph 75 % 0 in
17:08 35.1 °F 27.0 °F 23.45 in South 2.7 mph -999.0 mph 72 % 0 in
17:24 33.8 °F 22.5 °F 23.45 in SSW 1.1 mph -999.0 mph 63 % 0 in
17:39 32.5 °F 19.4 °F 23.45 in South 1.7 mph -999.0 mph 58 % 0 in
17:54 31.6 °F 18.1 °F 23.46 in SSE 1.7 mph -999.0 mph 57 % 0 in
18:09 30.7 °F 18.8 °F 23.46 in Calm   -999.0 mph 61 % 0 in
18:25 30.4 °F 15.3 °F 23.47 in Calm   -999.0 mph 53 % 0 in
18:40 29.7 °F 18.3 °F 23.47 in South 1.7 mph -999.0 mph 62 % 0 in
18:55 28.9 °F 18.2 °F 23.48 in Calm   -999.0 mph 64 % 0 in
19:10 28.8 °F 18.9 °F 23.49 in South 1.7 mph -999.0 mph 66 % 0 in
19:25 27.9 °F 20.0 °F 23.49 in Calm   -999.0 mph 72 % 0 in
19:41 28.2 °F 20.0 °F 23.50 in SSW 2.2 mph -999.0 mph 71 % 0 in
19:56 27.7 °F 18.2 °F 23.50 in South 2.2 mph -999.0 mph 67 % 0 in
20:11 27.5 °F 19.3 °F 23.51 in Calm   -999.0 mph 71 % 0 in
20:26 27.1 °F 19.3 °F 23.50 in Calm   -999.0 mph 72 % 0 in
20:41 26.8 °F 17.7 °F 23.51 in Calm   -999.0 mph 68 % 0 in
20:57 26.4 °F 18.9 °F 23.51 in Calm   -999.0 mph 73 % 0 in
21:12 26.6 °F 19.1 °F 23.51 in Calm   -999.0 mph 73 % 0 in
21:27 26.2 °F 19.4 °F 23.51 in Calm   -999.0 mph 75 % 0 in
21:42 25.7 °F 19.2 °F 23.51 in Calm   -999.0 mph 76 % 0 in
21:57 25.5 °F 19.6 °F 23.51 in Calm   -999.0 mph 78 % 0 in
22:13 25.5 °F 19.6 °F 23.51 in Calm   -999.0 mph 78 % 0 in
22:28 25.7 °F 20.1 °F 23.51 in Calm   -999.0 mph 79 % 0 in
22:43 25.0 °F 20.3 °F 23.51 in Calm   -999.0 mph 82 % 0 in
22:58 25.3 °F 20.0 °F 23.52 in Calm   -999.0 mph 80 % 0 in
23:14 25.5 °F 21.1 °F 23.51 in Calm   -999.0 mph 83 % 0 in
23:29 25.2 °F 20.2 °F 23.51 in Calm   -999.0 mph 81 % 0 in
23:44 25.0 °F 20.3 °F 23.51 in Calm   -999.0 mph 82 % 0 in
23:59 25.0 °F 20.6 °F 23.51 in Calm   -999.0 mph 83 % 0 in
Big Bear CA Weather
Compliments of Weather Underground - 1.5 mb